Time;durP1;ratioP1;P1;durP2;ratioP2;P2;SDS_P1;SDS_P2;PMS_P1;PMS_P2;Temp;Humidity;BMP_temperature;BMP_pressure;BME280_temperature;BME280_humidity;BME280_pressure;Samples;Min_cycle;Max_cycle;Signal;HPM_P1;HPM_P2
2022/05/24 00:01:33;;;;;;;5.90;5.40;;;;;;;;;;5057342;28;20536;-62
2022/05/24 00:03:59;;;;;;;9.88;5.70;;;;;;;;;;5064427;28;20074;-62
2022/05/24 00:06:30;;;;;;;5.93;5.43;;;;;;;;;;5051745;28;20028;-62
2022/05/24 00:08:56;;;;;;;6.50;5.88;;;;;;;;;;5036294;28;20119;-62
2022/05/24 00:11:22;;;;;;;6.47;5.90;;;;;;;;;;5035904;28;20595;-62
2022/05/24 00:13:49;;;;;;;7.43;5.82;;;;;;;;;;5049357;28;20041;-63
2022/05/24 00:16:15;;;;;;;5.95;5.50;;;;;;;;;;5048917;28;20082;-63
2022/05/24 00:18:41;;;;;;;6.13;5.70;;;;;;;;;;5048585;28;20079;-62
2022/05/24 00:21:07;;;;;;;6.15;5.60;;;;;;;;;;5036113;28;20033;-62
2022/05/24 00:23:34;;;;;;;6.30;5.70;;;;;;;;;;5049282;28;20045;-62
2022/05/24 00:26:06;;;;;;;6.45;5.40;;;;;;;;;;5054598;28;20039;-62
2022/05/24 00:28:33;;;;;;;5.30;5.00;;;;;;;;;;5040579;28;20492;-62
2022/05/24 00:30:59;;;;;;;5.90;5.50;;;;;;;;;;5044041;28;20033;-62
2022/05/24 00:33:28;;;;;;;5.65;5.15;;;;;;;;;;5058513;28;20036;-62
2022/05/24 00:35:55;;;;;;;6.00;5.70;;;;;;;;;;5052273;28;20032;-62
2022/05/24 00:38:29;;;;;;;5.82;5.43;;;;;;;;;;5050484;28;20503;-62
2022/05/24 00:41:10;;;;;;;6.20;5.80;;;;;;;;;;5049210;28;20024;-62
2022/05/24 00:43:43;;;;;;;6.20;5.60;;;;;;;;;;5048704;28;20075;-62
2022/05/24 00:46:14;;;;;;;5.40;5.10;;;;;;;;;;5048208;28;20412;-62
2022/05/24 00:48:55;;;;;;;5.30;5.00;;;;;;;;;;5048180;28;20045;-62
2022/05/24 00:51:27;;;;;;;5.97;5.40;;;;;;;;;;5046535;28;20119;-63
2022/05/24 00:53:54;;;;;;;5.55;5.07;;;;;;;;;;5047352;28;20439;-62
2022/05/24 00:56:47;;;;;;;5.75;5.25;;;;;;;;;;5037368;28;20025;-61
2022/05/24 00:59:27;;;;;;;5.55;5.25;;;;;;;;;;5050589;28;20449;-62
2022/05/24 01:01:55;;;;;;;5.90;5.50;;;;;;;;;;5055345;28;20040;-62
2022/05/24 01:04:20;;;;;;;5.68;5.18;;;;;;;;;;5055433;28;20549;-62
2022/05/24 01:06:48;;;;;;;5.13;4.82;;;;;;;;;;5049620;28;20024;-62
2022/05/24 01:09:23;;;;;;;5.50;5.00;;;;;;;;;;5053566;28;20104;-62
2022/05/24 01:11:56;;;;;;;6.00;5.50;;;;;;;;;;5046895;28;20070;-62
2022/05/24 01:14:23;;;;;;;5.78;5.30;;;;;;;;;;5053267;28;20063;-62
2022/05/24 01:16:50;;;;;;;5.57;5.28;;;;;;;;;;5051442;28;20029;-62
2022/05/24 01:19:35;;;;;;;5.57;5.15;;;;;;;;;;5061491;28;20036;-62
2022/05/24 01:22:14;;;;;;;5.75;5.45;;;;;;;;;;5056165;28;20131;-63
2022/05/24 01:24:52;;;;;;;5.68;5.38;;;;;;;;;;5046603;28;20484;-64
2022/05/24 01:27:18;;;;;;;5.60;5.25;;;;;;;;;;5055315;28;20043;-62
2022/05/24 01:29:44;;;;;;;5.78;5.38;;;;;;;;;;5047990;28;20032;-62
2022/05/24 01:37:37;;;;;;;5.93;5.35;;;;;;;;;;5051598;28;20048;-62
2022/05/24 01:40:04;;;;;;;5.72;5.38;;;;;;;;;;5055874;28;20041;-62
2022/05/24 01:42:31;;;;;;;5.68;5.18;;;;;;;;;;5055906;28;20119;-62
2022/05/24 01:45:12;;;;;;;5.90;5.50;;;;;;;;;;5057706;28;20112;-62
2022/05/24 01:47:39;;;;;;;5.60;5.20;;;;;;;;;;5057587;28;20493;-62
2022/05/24 01:50:09;;;;;;;5.90;5.40;;;;;;;;;;5056156;28;20467;-62
2022/05/24 01:52:49;;;;;;;5.60;5.30;;;;;;;;;;5054997;28;20692;-62
2022/05/24 01:55:25;;;;;;;5.90;5.50;;;;;;;;;;5051599;28;20431;-62
2022/05/24 01:57:55;;;;;;;5.80;5.40;;;;;;;;;;5049872;28;20052;-62
2022/05/24 02:00:20;;;;;;;5.78;5.40;;;;;;;;;;5054087;28;20033;-63
2022/05/24 02:02:48;;;;;;;5.70;5.30;;;;;;;;;;5049326;28;20064;-63
2022/05/24 02:05:28;;;;;;;5.57;5.22;;;;;;;;;;5057120;28;20051;-63
2022/05/24 02:07:54;;;;;;;5.88;5.47;;;;;;;;;;5055312;28;20112;-62
2022/05/24 02:10:20;;;;;;;5.50;5.15;;;;;;;;;;5059609;28;20103;-62
2022/05/24 02:12:50;;;;;;;5.70;5.30;;;;;;;;;;5061131;28;20025;-63
2022/05/24 02:15:24;;;;;;;5.35;5.05;;;;;;;;;;5058134;28;20094;-62
2022/05/24 02:18:02;;;;;;;5.90;5.50;;;;;;;;;;5048165;28;20032;-63
2022/05/24 02:20:34;;;;;;;6.82;6.32;;;;;;;;;;5056268;28;20535;-62
2022/05/24 02:23:01;;;;;;;5.53;5.13;;;;;;;;;;5060942;28;20075;-62
2022/05/24 02:25:34;;;;;;;7.75;5.70;;;;;;;;;;5040590;28;20036;-62
2022/05/24 02:28:00;;;;;;;5.90;5.40;;;;;;;;;;5054020;28;20064;-62
2022/05/24 02:30:28;;;;;;;6.03;5.63;;;;;;;;;;5050243;28;20068;-62
2022/05/24 02:32:54;;;;;;;5.70;5.40;;;;;;;;;;5041368;28;20565;-62
2022/05/24 02:35:21;;;;;;;5.60;5.18;;;;;;;;;;5052113;28;20032;-62
2022/05/24 02:37:47;;;;;;;5.82;5.32;;;;;;;;;;5056686;28;20098;-62
2022/05/24 02:42:57;;;;;;;5.50;5.20;;;;;;;;;;5052010;28;20158;-61
2022/05/24 02:45:23;;;;;;;5.53;5.22;;;;;;;;;;5043638;28;20215;-62
2022/05/24 02:47:50;;;;;;;5.50;5.20;;;;;;;;;;5051594;28;20478;-62
2022/05/24 02:50:16;;;;;;;5.80;5.40;;;;;;;;;;5049421;28;20037;-62
2022/05/24 02:52:42;;;;;;;5.60;5.30;;;;;;;;;;5048945;28;20067;-61
2022/05/24 02:55:09;;;;;;;5.55;5.25;;;;;;;;;;5052848;28;20065;-62
2022/05/24 02:57:36;;;;;;;5.75;5.35;;;;;;;;;;5048490;28;20033;-62
2022/05/24 03:00:04;;;;;;;5.75;5.38;;;;;;;;;;5049063;28;20033;-62
2022/05/24 03:02:30;;;;;;;5.90;5.60;;;;;;;;;;5053279;28;20133;-62
2022/05/24 03:04:56;;;;;;;5.72;5.43;;;;;;;;;;5060704;28;20128;-62
2022/05/24 03:10:06;;;;;;;5.82;5.53;;;;;;;;;;5052946;28;20024;-62
2022/05/24 03:15:16;;;;;;;6.03;5.53;;;;;;;;;;5052734;28;20056;-62
2022/05/24 03:17:41;;;;;;;5.70;5.30;;;;;;;;;;5048903;28;20492;-60
2022/05/24 03:20:08;;;;;;;5.65;5.35;;;;;;;;;;5047495;28;20173;-60
2022/05/24 03:22:33;;;;;;;6.32;5.82;;;;;;;;;;5056515;28;20208;-60
2022/05/24 03:24:59;;;;;;;5.75;5.40;;;;;;;;;;5047097;28;20522;-59
2022/05/24 03:27:24;;;;;;;5.72;5.43;;;;;;;;;;5047963;28;20045;-60
2022/05/24 03:29:50;;;;;;;5.97;5.40;;;;;;;;;;5046837;28;20037;-61
2022/05/24 03:32:18;;;;;;;6.00;5.70;;;;;;;;;;5054396;28;20033;-60
2022/05/24 03:34:44;;;;;;;6.32;5.85;;;;;;;;;;5046228;28;20090;-59
2022/05/24 03:37:09;;;;;;;6.30;5.90;;;;;;;;;;5055718;28;20037;-60
2022/05/24 03:39:36;;;;;;;5.95;5.55;;;;;;;;;;5044903;28;20642;-60
2022/05/24 03:42:03;;;;;;;6.20;5.70;;;;;;;;;;5059451;28;20059;-60
2022/05/24 03:44:29;;;;;;;6.20;5.80;;;;;;;;;;5059918;28;20037;-60
2022/05/24 03:46:56;;;;;;;6.00;5.50;;;;;;;;;;5054494;28;20039;-60
2022/05/24 03:49:21;;;;;;;6.45;5.90;;;;;;;;;;5056575;28;20040;-60
2022/05/24 03:51:47;;;;;;;6.03;5.70;;;;;;;;;;5051629;28;20120;-60
2022/05/24 03:54:13;;;;;;;5.90;5.50;;;;;;;;;;5046877;28;20427;-60
2022/05/24 03:57:59;;;;;;;6.00;5.57;;;;;;;;;;5046334;28;20020;-60
2022/05/24 03:59:26;;;;;;;5.82;5.50;;;;;;;;;;5054091;28;20397;-59
2022/05/24 04:01:51;;;;;;;6.32;5.90;;;;;;;;;;5053590;28;20044;-60
2022/05/24 04:04:17;;;;;;;5.72;5.40;;;;;;;;;;5048283;28;20044;-60
2022/05/24 04:06:42;;;;;;;6.13;5.72;;;;;;;;;;5049902;28;20037;-60
2022/05/24 04:09:08;;;;;;;6.30;5.90;;;;;;;;;;5053208;28;20657;-60
2022/05/24 04:11:34;;;;;;;6.20;5.80;;;;;;;;;;5047933;28;20067;-60
2022/05/24 04:14:00;;;;;;;5.97;5.57;;;;;;;;;;5046029;28;20476;-60
2022/05/24 04:16:27;;;;;;;6.05;5.40;;;;;;;;;;5053920;28;20191;-60
2022/05/24 04:18:52;;;;;;;6.20;5.70;;;;;;;;;;5044418;28;20183;-63
2022/05/24 04:21:18;;;;;;;5.85;5.43;;;;;;;;;;5059093;28;20036;-60
2022/05/24 04:23:44;;;;;;;5.90;5.50;;;;;;;;;;5046868;28;20029;-61
2022/05/24 04:26:09;;;;;;;6.00;5.68;;;;;;;;;;5042067;28;20434;-60
2022/05/24 04:28:35;;;;;;;6.25;5.85;;;;;;;;;;5045562;28;20383;-60
2022/05/24 04:31:01;;;;;;;6.35;5.85;;;;;;;;;;5043920;28;20493;-62
2022/05/24 04:33:27;;;;;;;6.07;5.57;;;;;;;;;;5044956;28;20028;-60
2022/05/24 04:35:55;;;;;;;6.25;5.70;;;;;;;;;;5048066;28;20043;-60
2022/05/24 04:38:20;;;;;;;6.30;5.80;;;;;;;;;;5055652;28;20024;-63
2022/05/24 04:43:32;;;;;;;6.10;5.72;;;;;;;;;;5047124;28;20033;-59
2022/05/24 04:45:57;;;;;;;8.98;6.10;;;;;;;;;;5048942;28;20032;-60
2022/05/24 04:48:25;;;;;;;6.00;5.70;;;;;;;;;;5049010;28;20067;-59
2022/05/24 04:50:52;;;;;;;6.50;5.90;;;;;;;;;;5046832;28;20041;-61
2022/05/24 04:53:18;;;;;;;7.70;6.13;;;;;;;;;;5046358;28;20457;-58
2022/05/24 04:55:43;;;;;;;6.78;6.20;;;;;;;;;;5047902;28;20116;-60
2022/05/24 04:58:11;;;;;;;6.45;5.80;;;;;;;;;;5049652;28;20032;-60
2022/05/24 05:00:38;;;;;;;6.80;6.20;;;;;;;;;;5042922;28;20038;-61
2022/05/24 05:03:12;;;;;;;8.77;7.13;;;;;;;;;;5051134;28;20036;-61
2022/05/24 05:05:41;;;;;;;7.40;6.70;;;;;;;;;;5050145;28;20541;-61
2022/05/24 05:08:07;;;;;;;6.70;6.20;;;;;;;;;;5059625;28;20021;-60
2022/05/24 05:10:34;;;;;;;6.38;5.97;;;;;;;;;;5057547;28;20083;-60
2022/05/24 05:13:04;;;;;;;6.03;5.53;;;;;;;;;;5052190;28;20033;-60
2022/05/24 05:15:31;;;;;;;6.70;6.15;;;;;;;;;;5054934;28;20627;-62
2022/05/24 05:18:05;;;;;;;6.68;6.10;;;;;;;;;;5047041;28;20071;-60
2022/05/24 05:20:32;;;;;;;6.57;6.07;;;;;;;;;;5043851;28;20028;-62
2022/05/24 05:22:58;;;;;;;6.32;5.82;;;;;;;;;;5055582;28;20562;-61
2022/05/24 05:25:24;;;;;;;6.05;5.60;;;;;;;;;;5058415;28;20036;-61
2022/05/24 05:27:50;;;;;;;5.80;5.50;;;;;;;;;;5056157;28;20068;-60
2022/05/24 05:33:01;;;;;;;5.90;5.40;;;;;;;;;;5055864;28;20032;-60
2022/05/24 05:35:26;;;;;;;5.95;5.60;;;;;;;;;;5051180;28;20112;-61
2022/05/24 05:37:52;;;;;;;7.30;5.40;;;;;;;;;;5051039;28;20067;-59
2022/05/24 05:40:17;;;;;;;8.20;5.32;;;;;;;;;;5056230;28;20400;-59
2022/05/24 05:42:43;;;;;;;5.75;5.45;;;;;;;;;;5054090;28;20407;-61
2022/05/24 05:45:11;;;;;;;5.70;5.30;;;;;;;;;;5050550;28;20373;-60
2022/05/24 05:47:38;;;;;;;5.93;5.10;;;;;;;;;;5053903;28;20036;-61
2022/05/24 05:50:04;;;;;;;6.20;5.63;;;;;;;;;;5056118;28;20532;-59
2022/05/24 05:52:30;;;;;;;6.57;5.97;;;;;;;;;;5050881;28;20086;-60
2022/05/24 05:54:55;;;;;;;6.38;5.75;;;;;;;;;;5046817;28;20451;-61
2022/05/24 05:57:21;;;;;;;6.47;6.07;;;;;;;;;;5059167;28;20044;-61
2022/05/24 05:59:47;;;;;;;6.28;5.78;;;;;;;;;;5050271;28;20037;-61
2022/05/24 06:02:13;;;;;;;7.63;5.65;;;;;;;;;;5050787;28;20048;-61
2022/05/24 06:04:39;;;;;;;5.93;5.45;;;;;;;;;;5053368;28;20052;-61
2022/05/24 06:07:05;;;;;;;6.10;5.70;;;;;;;;;;5057938;28;20090;-61
2022/05/24 06:09:30;;;;;;;6.28;5.80;;;;;;;;;;5050640;28;20036;-61
2022/05/24 06:11:59;;;;;;;7.15;5.72;;;;;;;;;;5052464;28;20043;-60
2022/05/24 06:14:25;;;;;;;6.25;5.85;;;;;;;;;;5055461;28;20041;-61
2022/05/24 06:16:50;;;;;;;6.10;5.63;;;;;;;;;;5050217;28;20533;-60
2022/05/24 06:19:16;;;;;;;6.50;6.00;;;;;;;;;;5046049;28;20025;-59
2022/05/24 06:21:42;;;;;;;5.93;5.53;;;;;;;;;;5055072;28;20033;-59
2022/05/24 06:24:08;;;;;;;5.95;5.55;;;;;;;;;;5040034;28;20400;-60
2022/05/24 06:26:34;;;;;;;6.80;6.32;;;;;;;;;;5047056;28;20036;-60
2022/05/24 06:29:01;;;;;;;6.35;5.72;;;;;;;;;;5051374;28;20131;-60
2022/05/24 06:31:27;;;;;;;6.18;5.63;;;;;;;;;;5058212;28;20119;-60
2022/05/24 06:33:53;;;;;;;5.78;5.22;;;;;;;;;;5050575;28;20037;-61
2022/05/24 06:36:19;;;;;;;5.88;5.38;;;;;;;;;;5047413;28;20037;-61
2022/05/24 06:38:44;;;;;;;5.57;5.18;;;;;;;;;;5058528;28;20036;-60
2022/05/24 06:41:10;;;;;;;5.43;4.93;;;;;;;;;;5050402;28;20036;-61
2022/05/24 06:43:36;;;;;;;5.57;5.18;;;;;;;;;;5047340;28;20096;-60
2022/05/24 06:46:07;;;;;;;5.32;5.03;;;;;;;;;;5049264;28;20057;-61
2022/05/24 06:48:40;;;;;;;7.32;5.70;;;;;;;;;;5049768;28;20128;-60
2022/05/24 06:51:10;;;;;;;6.82;5.50;;;;;;;;;;5049382;28;20041;-61
2022/05/24 06:53:37;;;;;;;5.65;5.20;;;;;;;;;;5045197;28;20551;-60
2022/05/24 06:56:02;;;;;;;6.00;5.20;;;;;;;;;;5058027;28;20204;-61
2022/05/24 06:58:28;;;;;;;7.53;5.00;;;;;;;;;;5049765;28;20552;-62
2022/05/24 07:03:38;;;;;;;5.50;5.10;;;;;;;;;;5068703;22;20040;-65
2022/05/24 07:06:04;;;;;;;5.50;5.10;;;;;;;;;;5073649;28;20431;-65
2022/05/24 07:08:30;;;;;;;6.22;4.95;;;;;;;;;;5069392;28;20033;-65
2022/05/24 07:10:55;;;;;;;5.18;4.78;;;;;;;;;;5075719;28;20043;-65
2022/05/24 07:13:21;;;;;;;5.75;5.28;;;;;;;;;;5084340;28;20483;-65
2022/05/24 07:15:48;;;;;;;5.07;4.72;;;;;;;;;;5070003;28;20036;-65
2022/05/24 07:18:14;;;;;;;6.68;5.00;;;;;;;;;;5069366;28;20376;-65
2022/05/24 07:20:41;;;;;;;6.55;5.45;;;;;;;;;;5076091;28;20035;-64
2022/05/24 07:23:19;;;;;;;5.60;5.10;;;;;;;;;;5068045;28;20485;-65
2022/05/24 07:25:46;;;;;;;5.60;5.10;;;;;;;;;;5060926;28;20036;-64
2022/05/24 07:28:15;;;;;;;8.80;4.40;;;;;;;;;;5063433;28;20044;-64
2022/05/24 07:30:42;;;;;;;6.97;4.72;;;;;;;;;;5073949;28;20055;-65
2022/05/24 07:33:08;;;;;;;4.97;4.65;;;;;;;;;;5072927;28;20116;-64
2022/05/24 07:35:34;;;;;;;7.00;5.00;;;;;;;;;;5069093;28;20033;-63
2022/05/24 07:38:00;;;;;;;6.43;5.30;;;;;;;;;;5066557;28;20033;-63
2022/05/24 07:46:01;;;;;;;5.68;5.38;;;;;;;;;;5068787;28;20376;-64
2022/05/24 07:48:27;;;;;;;5.50;5.10;;;;;;;;;;5067391;28;20123;-65
2022/05/24 07:50:52;;;;;;;5.78;5.38;;;;;;;;;;5076379;28;20116;-64
2022/05/24 07:53:18;;;;;;;5.65;5.35;;;;;;;;;;5066890;28;20078;-64
2022/05/24 07:55:44;;;;;;;6.30;5.80;;;;;;;;;;5063133;28;20054;-63
2022/05/24 07:58:11;;;;;;;5.93;5.40;;;;;;;;;;5074475;28;20028;-63
2022/05/24 08:00:38;;;;;;;6.13;5.65;;;;;;;;;;5077077;28;20051;-65
2022/05/24 08:03:05;;;;;;;5.95;5.60;;;;;;;;;;5068938;28;20040;-65
2022/05/24 08:05:33;;;;;;;8.25;6.03;;;;;;;;;;5069161;28;20044;-65
2022/05/24 08:08:00;;;;;;;6.05;5.65;;;;;;;;;;5074777;28;20040;-65
2022/05/24 08:10:30;;;;;;;6.05;5.70;;;;;;;;;;5072099;28;20043;-65
2022/05/24 08:12:57;;;;;;;6.50;5.90;;;;;;;;;;5068430;28;20037;-65
2022/05/24 08:15:23;;;;;;;6.20;5.90;;;;;;;;;;5069591;28;20048;-65
2022/05/24 08:17:50;;;;;;;6.10;5.50;;;;;;;;;;5080198;28;20482;-64
2022/05/24 08:20:17;;;;;;;6.15;5.70;;;;;;;;;;5068756;28;20400;-65
2022/05/24 08:22:43;;;;;;;7.47;5.93;;;;;;;;;;5068602;28;20040;-65
2022/05/24 08:25:11;;;;;;;6.03;5.55;;;;;;;;;;5070683;28;20378;-65
2022/05/24 08:27:37;;;;;;;6.32;5.80;;;;;;;;;;5073439;28;20039;-65
2022/05/24 08:30:06;;;;;;;6.13;5.78;;;;;;;;;;5068266;28;20071;-65
2022/05/24 08:32:32;;;;;;;5.90;5.60;;;;;;;;;;5064635;28;20044;-65
2022/05/24 08:34:58;;;;;;;6.60;6.20;;;;;;;;;;5075931;28;20036;-65
2022/05/24 08:37:24;;;;;;;6.18;5.68;;;;;;;;;;5073709;28;20394;-65
2022/05/24 08:39:49;;;;;;;5.80;5.47;;;;;;;;;;5067647;28;20044;-64
2022/05/24 08:42:21;;;;;;;6.40;5.88;;;;;;;;;;5068904;28;20032;-66
2022/05/24 08:50:33;;;;;;;5.82;5.53;;;;;;;;;;5071076;28;20058;-65
2022/05/24 08:53:09;;;;;;;5.65;5.35;;;;;;;;;;5075248;28;20032;-65
2022/05/24 08:55:37;;;;;;;5.78;5.38;;;;;;;;;;5061582;28;20438;-64
2022/05/24 08:58:05;;;;;;;5.40;5.15;;;;;;;;;;5075511;28;20048;-65
2022/05/24 09:00:35;;;;;;;6.03;5.63;;;;;;;;;;5068530;28;20529;-67
2022/05/24 09:03:05;;;;;;;5.80;5.50;;;;;;;;;;5074668;28;20029;-66
2022/05/24 09:05:38;;;;;;;6.75;5.60;;;;;;;;;;5067413;28;20491;-64
2022/05/24 09:08:16;;;;;;;6.00;5.70;;;;;;;;;;5067041;28;20063;-65
2022/05/24 09:10:59;;;;;;;5.90;5.60;;;;;;;;;;5071777;28;20089;-65
2022/05/24 09:13:45;;;;;;;6.45;5.90;;;;;;;;;;5060691;28;20067;-64
2022/05/24 09:16:14;;;;;;;5.60;5.30;;;;;;;;;;5067768;28;20036;-64
2022/05/24 09:18:49;;;;;;;5.45;5.07;;;;;;;;;;5067168;28;20028;-65
2022/05/24 09:21:29;;;;;;;5.30;5.00;;;;;;;;;;5074828;28;20040;-63
2022/05/24 09:24:16;;;;;;;5.38;5.07;;;;;;;;;;5063453;28;20060;-61
2022/05/24 09:27:01;;;;;;;5.57;5.28;;;;;;;;;;5066582;28;20032;-64
2022/05/24 09:29:27;;;;;;;5.50;5.20;;;;;;;;;;5072949;28;20158;-64
2022/05/24 09:31:56;;;;;;;5.50;5.20;;;;;;;;;;5075472;28;20025;-66
2022/05/24 09:34:30;;;;;;;5.75;5.28;;;;;;;;;;5066949;28;20442;-64
2022/05/24 09:37:14;;;;;;;5.82;5.53;;;;;;;;;;5067595;28;20039;-64
2022/05/24 09:39:42;;;;;;;5.95;5.40;;;;;;;;;;5068225;28;20321;-63
2022/05/24 09:42:23;;;;;;;4.67;4.47;;;;;;;;;;5072738;28;20638;-64
2022/05/24 09:45:13;;;;;;;5.50;5.20;;;;;;;;;;5066732;28;20293;-65
2022/05/24 09:47:41;;;;;;;4.95;4.75;;;;;;;;;;5067797;28;20032;-65
2022/05/24 09:50:20;;;;;;;5.00;4.80;;;;;;;;;;5075694;28;20032;-66
2022/05/24 09:53:04;;;;;;;5.13;4.82;;;;;;;;;;5066659;28;20287;-64
2022/05/24 09:55:59;;;;;;;5.07;4.80;;;;;;;;;;5062309;28;20123;-64
2022/05/24 09:58:38;;;;;;;5.95;5.65;;;;;;;;;;5070680;28;20394;-62
2022/05/24 10:01:03;;;;;;;;;;;;;;;;;;5071323;28;20040;-64
2022/05/24 10:03:48;;;;;;;4.30;4.10;;;;;;;;;;5066304;28;19920;-61
2022/05/24 10:06:26;;;;;;;5.03;4.45;;;;;;;;;;5071022;28;20040;-62
2022/05/24 10:09:09;;;;;;;5.25;4.95;;;;;;;;;;5075006;28;20028;-64
2022/05/24 10:11:42;;;;;;;5.18;4.88;;;;;;;;;;5071088;28;20028;-65
2022/05/24 10:14:40;;;;;;;5.18;4.70;;;;;;;;;;5070245;28;20044;-66
2022/05/24 10:17:48;;;;;;;5.22;4.93;;;;;;;;;;5080852;28;20064;-65
2022/05/24 10:20:37;;;;;;;5.20;4.90;;;;;;;;;;5050876;28;20038;-65
2022/05/24 10:23:26;;;;;;;4.93;4.72;;;;;;;;;;5066998;28;20041;-65
2022/05/24 10:26:30;;;;;;;5.38;5.07;;;;;;;;;;5038676;28;20040;-63
2022/05/24 10:29:03;;;;;;;5.32;5.05;;;;;;;;;;5045037;28;20036;-65
2022/05/24 10:31:40;;;;;;;5.72;5.43;;;;;;;;;;5073333;28;20037;-64
2022/05/24 10:40:43;;;;;;;5.07;4.78;;;;;;;;;;5076440;28;20048;-64
2022/05/24 10:43:22;;;;;;;5.10;4.80;;;;;;;;;;5069561;28;20453;-64
2022/05/24 10:45:51;;;;;;;5.70;5.40;;;;;;;;;;5071873;28;20034;-64
2022/05/24 10:48:34;;;;;;;5.50;5.20;;;;;;;;;;5074245;28;20123;-64
2022/05/24 10:51:16;;;;;;;5.35;5.05;;;;;;;;;;5070465;28;20117;-62
2022/05/24 10:53:50;;;;;;;5.05;4.85;;;;;;;;;;5066645;28;20044;-63
2022/05/24 10:56:33;;;;;;;5.40;5.10;;;;;;;;;;5076849;28;20387;-63
2022/05/24 10:59:21;;;;;;;5.10;4.90;;;;;;;;;;5066802;28;20032;-62
2022/05/24 11:02:03;;;;;;;4.93;4.63;;;;;;;;;;5070061;28;20032;-62
2022/05/24 11:04:49;;;;;;;5.00;4.70;;;;;;;;;;5071677;28;20402;-64
2022/05/24 11:07:18;;;;;;;4.50;4.30;;;;;;;;;;5078659;28;20039;-62
2022/05/24 11:09:56;;;;;;;4.45;4.25;;;;;;;;;;5075282;28;20144;-66
2022/05/24 11:12:28;;;;;;;4.80;4.50;;;;;;;;;;5069748;28;20044;-66
2022/05/24 11:15:01;;;;;;;4.97;4.57;;;;;;;;;;5069535;28;20028;-65
2022/05/24 11:17:26;;;;;;;4.85;4.35;;;;;;;;;;5075450;28;20036;-66
2022/05/24 11:19:59;;;;;;;4.75;4.55;;;;;;;;;;5075450;28;20528;-65
2022/05/24 11:22:44;;;;;;;5.43;5.03;;;;;;;;;;5069298;28;20387;-65
2022/05/24 11:25:28;;;;;;;4.50;4.30;;;;;;;;;;5063047;28;20045;-64
2022/05/24 11:28:15;;;;;;;4.60;4.40;;;;;;;;;;5069126;28;20368;-64
2022/05/24 11:30:41;;;;;;;5.30;4.50;;;;;;;;;;5069168;28;20039;-63
2022/05/24 11:33:14;;;;;;;4.70;4.30;;;;;;;;;;5058866;28;20040;-64
2022/05/24 11:35:42;;;;;;;5.30;5.00;;;;;;;;;;5080349;28;20069;-64
2022/05/24 11:38:33;;;;;;;4.78;4.47;;;;;;;;;;5072796;28;20047;-63
2022/05/24 11:41:12;;;;;;;4.55;4.35;;;;;;;;;;5068013;28;20690;-65
2022/05/24 11:43:43;;;;;;;4.70;4.50;;;;;;;;;;5078934;28;20035;-64
2022/05/24 11:46:30;;;;;;;4.97;4.68;;;;;;;;;;5069696;28;20060;-65
2022/05/24 11:48:59;;;;;;;4.60;4.40;;;;;;;;;;5062608;28;20085;-62
2022/05/24 11:51:36;;;;;;;4.70;4.40;;;;;;;;;;5071095;28;20483;-64
2022/05/24 11:54:13;;;;;;;4.90;4.60;;;;;;;;;;5064222;28;20068;-65
2022/05/24 11:56:39;;;;;;;4.38;4.18;;;;;;;;;;5070703;28;20038;-65
2022/05/24 11:59:11;;;;;;;4.63;4.32;;;;;;;;;;5072909;28;20032;-64
2022/05/24 12:01:40;;;;;;;8.82;4.93;;;;;;;;;;5066848;28;20029;-64
2022/05/24 12:10:10;;;;;;;4.97;4.60;;;;;;;;;;5065217;28;20570;-63
2022/05/24 12:13:09;;;;;;;4.70;4.40;;;;;;;;;;5061845;28;20472;-65
2022/05/24 12:15:40;;;;;;;4.80;4.60;;;;;;;;;;5074412;28;20032;-64
2022/05/24 12:18:05;;;;;;;4.63;4.22;;;;;;;;;;5066154;28;20127;-64
2022/05/24 12:20:34;;;;;;;4.80;4.50;;;;;;;;;;5065651;28;20119;-65
2022/05/24 12:23:09;;;;;;;5.20;4.88;;;;;;;;;;5075045;28;20039;-65
2022/05/24 12:25:58;;;;;;;4.75;4.43;;;;;;;;;;5064610;28;20032;-66
2022/05/24 12:28:29;;;;;;;;;;;;;;;;;;5064388;28;20040;-65
2022/05/24 12:30:57;;;;;;;5.03;4.72;;;;;;;;;;5070038;28;19912;-65
2022/05/24 12:33:31;;;;;;;5.00;4.70;;;;;;;;;;5067546;28;20040;-65
2022/05/24 12:36:22;;;;;;;6.65;4.85;;;;;;;;;;5066099;28;20087;-65
2022/05/24 12:39:03;;;;;;;4.80;4.60;;;;;;;;;;5067454;28;20052;-65
2022/05/24 12:41:47;;;;;;;5.00;4.60;;;;;;;;;;5070882;28;20080;-65
2022/05/24 12:44:19;;;;;;;4.75;4.45;;;;;;;;;;5065675;28;20139;-66
2022/05/24 12:46:53;;;;;;;4.75;4.45;;;;;;;;;;5065102;28;20040;-65
2022/05/24 12:49:28;;;;;;;4.82;4.60;;;;;;;;;;5071516;28;20028;-65
2022/05/24 12:52:00;;;;;;;4.35;4.15;;;;;;;;;;5065982;28;20024;-65
2022/05/24 12:54:40;;;;;;;6.03;4.40;;;;;;;;;;5064947;28;20046;-66
2022/05/24 12:57:14;;;;;;;4.60;4.38;;;;;;;;;;5070663;28;20052;-66
2022/05/24 12:59:42;;;;;;;4.70;4.40;;;;;;;;;;5065976;28;20064;-66
2022/05/24 13:02:26;;;;;;;4.05;3.83;;;;;;;;;;5062801;28;20032;-65
2022/05/24 13:04:53;;;;;;;4.40;4.00;;;;;;;;;;5072946;28;20123;-64
2022/05/24 13:07:58;;;;;;;4.60;4.40;;;;;;;;;;5063318;28;20074;-64
2022/05/24 13:10:30;;;;;;;5.03;4.40;;;;;;;;;;5058864;28;20103;-65
2022/05/24 13:12:59;;;;;;;4.25;4.05;;;;;;;;;;5075320;28;20536;-64
2022/05/24 13:15:29;;;;;;;;;;;;;;;;;;5066059;28;20052;-64
2022/05/24 13:18:02;;;;;;;4.68;4.30;;;;;;;;;;5064339;28;20193;-65
2022/05/24 13:20:35;;;;;;;4.97;4.55;;;;;;;;;;5072348;28;20526;-64
2022/05/24 13:23:06;;;;;;;4.50;4.30;;;;;;;;;;5065662;28;20040;-64
2022/05/24 13:25:56;;;;;;;5.00;4.60;;;;;;;;;;5061310;28;20047;-65
2022/05/24 13:28:48;;;;;;;4.50;4.30;;;;;;;;;;5063263;28;20079;-64
2022/05/24 13:34:19;;;;;;;4.38;4.18;;;;;;;;;;5065225;28;20048;-64
2022/05/24 13:36:51;;;;;;;4.13;3.83;;;;;;;;;;5065270;28;20043;-64
2022/05/24 13:39:23;;;;;;;5.03;4.40;;;;;;;;;;5068272;28;20041;-64
2022/05/24 13:42:19;;;;;;;4.45;4.20;;;;;;;;;;5066778;28;20037;-63
2022/05/24 13:45:14;;;;;;;4.50;4.22;;;;;;;;;;5064683;28;20072;-64
2022/05/24 13:47:46;;;;;;;4.80;4.50;;;;;;;;;;5076366;28;20051;-64
2022/05/24 13:50:21;;;;;;;4.57;4.28;;;;;;;;;;5070573;28;20051;-64
2022/05/24 13:52:49;;;;;;;4.40;4.10;;;;;;;;;;5068135;28;20200;-64
2022/05/24 13:55:19;;;;;;;4.53;4.20;;;;;;;;;;5073092;28;20100;-64
2022/05/24 13:57:46;;;;;;;4.45;4.15;;;;;;;;;;5073077;28;20044;-66
2022/05/24 14:00:37;;;;;;;4.30;4.10;;;;;;;;;;5068906;28;20045;-64
2022/05/24 14:03:07;;;;;;;4.70;4.40;;;;;;;;;;5060669;28;20076;-64
2022/05/24 14:05:34;;;;;;;4.82;4.53;;;;;;;;;;5072064;28;20049;-64
2022/05/24 14:08:01;;;;;;;4.25;4.05;;;;;;;;;;5069147;28;20043;-64
2022/05/24 14:10:31;;;;;;;4.55;4.25;;;;;;;;;;5070097;28;20641;-64
2022/05/24 14:12:56;;;;;;;4.30;4.03;;;;;;;;;;5077763;28;20032;-64
2022/05/24 14:15:23;;;;;;;4.78;4.40;;;;;;;;;;5070910;28;20048;-64
2022/05/24 14:17:50;;;;;;;4.65;4.35;;;;;;;;;;5068986;28;20040;-64
2022/05/24 14:20:19;;;;;;;4.45;4.25;;;;;;;;;;5072210;28;20043;-63
2022/05/24 14:22:45;;;;;;;4.38;3.97;;;;;;;;;;5075483;28;20040;-64
2022/05/24 14:25:13;;;;;;;3.97;3.78;;;;;;;;;;5061929;28;20035;-64
2022/05/24 14:27:40;;;;;;;4.07;3.88;;;;;;;;;;5067296;28;20424;-64
2022/05/24 14:30:07;;;;;;;4.40;4.10;;;;;;;;;;5084539;28;20399;-64
2022/05/24 14:32:34;;;;;;;4.30;4.10;;;;;;;;;;5068602;28;20052;-64
2022/05/24 14:35:00;;;;;;;4.32;3.95;;;;;;;;;;5068556;28;20048;-64
2022/05/24 14:37:26;;;;;;;4.82;4.07;;;;;;;;;;5064147;28;20677;-64
2022/05/24 14:39:51;;;;;;;4.13;3.78;;;;;;;;;;5076691;28;20081;-64
2022/05/24 14:42:20;;;;;;;4.40;4.00;;;;;;;;;;5073840;28;20562;-64
2022/05/24 14:44:46;;;;;;;5.32;3.65;;;;;;;;;;5067672;28;20059;-64
2022/05/24 14:47:14;;;;;;;4.38;4.07;;;;;;;;;;5071017;28;20047;-63
2022/05/24 14:49:41;;;;;;;4.00;3.80;;;;;;;;;;5076179;28;20090;-64
2022/05/24 14:52:09;;;;;;;3.97;3.72;;;;;;;;;;5067721;28;20048;-64
2022/05/24 14:54:43;;;;;;;3.97;3.70;;;;;;;;;;5063641;28;20040;-64
2022/05/24 14:57:09;;;;;;;4.53;3.65;;;;;;;;;;5072983;28;20194;-64
2022/05/24 14:59:37;;;;;;;4.50;4.10;;;;;;;;;;5074477;28;20104;-64
2022/05/24 15:02:03;;;;;;;7.07;4.30;;;;;;;;;;5067673;28;20067;-64
2022/05/24 15:04:30;;;;;;;4.57;4.30;;;;;;;;;;5067475;28;20040;-64
2022/05/24 15:15:20;;;;;;;4.03;3.72;;;;;;;;;;5075136;28;20422;-64
2022/05/24 15:15:23;;;;;;;5.22;3.70;;;;;;;;;;5070012;28;20047;-63
2022/05/24 15:17:50;;;;;;;;;;;;;;;;;;5072819;28;20086;-64
2022/05/24 15:20:21;;;;;;;4.13;3.83;;;;;;;;;;5067535;28;19969;-64
2022/05/24 15:22:54;;;;;;;4.43;4.13;;;;;;;;;;5072865;28;20078;-64
2022/05/24 15:25:31;;;;;;;4.28;3.70;;;;;;;;;;5071270;28;20117;-64
2022/05/24 15:27:59;;;;;;;3.97;3.67;;;;;;;;;;5067397;28;20178;-64
2022/05/24 15:30:26;;;;;;;4.35;4.05;;;;;;;;;;5064718;28;20044;-64
2022/05/24 15:32:52;;;;;;;4.40;4.00;;;;;;;;;;5074557;28;20033;-64
2022/05/24 15:35:19;;;;;;;4.55;4.25;;;;;;;;;;5066961;28;20036;-64
2022/05/24 15:37:45;;;;;;;4.22;4.03;;;;;;;;;;5067155;28;20038;-64
2022/05/24 15:40:12;;;;;;;4.38;4.07;;;;;;;;;;5071754;28;20107;-64
2022/05/24 15:42:38;;;;;;;4.30;4.10;;;;;;;;;;5066197;28;20052;-64
2022/05/24 15:45:05;;;;;;;4.85;4.30;;;;;;;;;;5067492;28;20039;-64
2022/05/24 15:47:32;;;;;;;4.35;4.10;;;;;;;;;;5066918;28;20407;-64
2022/05/24 15:49:58;;;;;;;6.25;4.15;;;;;;;;;;5066076;28;20623;-64
2022/05/24 15:52:24;;;;;;;4.72;4.32;;;;;;;;;;5074650;28;20157;-65
2022/05/24 15:54:50;;;;;;;4.40;4.00;;;;;;;;;;5067337;28;20039;-64
2022/05/24 15:57:16;;;;;;;4.57;4.32;;;;;;;;;;5062530;28;20036;-65
2022/05/24 15:59:42;;;;;;;4.20;4.00;;;;;;;;;;5065583;28;20483;-65